createdAt,value
2018-03-26T00:00:30.654Z,955.71
2018-03-26T00:01:30.673Z,955.67
2018-03-26T00:02:30.693Z,955.67
2018-03-26T00:03:30.695Z,955.75
2018-03-26T00:04:30.713Z,955.72
2018-03-26T00:05:30.729Z,955.71
2018-03-26T00:06:30.764Z,955.69
2018-03-26T00:07:30.732Z,955.74
2018-03-26T00:08:30.749Z,955.69
2018-03-26T00:09:30.757Z,955.71
2018-03-26T00:10:30.769Z,955.68
2018-03-26T00:11:30.813Z,955.71
2018-03-26T00:12:30.791Z,955.72
2018-03-26T00:13:30.802Z,955.69
2018-03-26T00:14:30.814Z,955.69
2018-03-26T00:15:30.824Z,955.69
2018-03-26T00:16:30.883Z,955.65
2018-03-26T00:17:30.852Z,955.66
2018-03-26T00:18:30.864Z,955.66
2018-03-26T00:19:30.877Z,955.71
2018-03-26T00:20:30.886Z,955.70
2018-03-26T00:21:30.914Z,955.70
2018-03-26T00:22:30.945Z,955.70
2018-03-26T00:23:30.916Z,955.75
2018-03-26T00:24:30.936Z,955.71
2018-03-26T00:25:30.940Z,955.73
2018-03-26T00:26:30.977Z,955.74
2018-03-26T00:27:31.015Z,955.72
2018-03-26T00:28:30.979Z,955.74
2018-03-26T00:29:30.989Z,955.71
2018-03-26T00:30:30.996Z,955.70
2018-03-26T00:31:31.024Z,955.72
2018-03-26T00:32:31.028Z,955.71
2018-03-26T00:33:31.081Z,955.71
2018-03-26T00:34:31.074Z,955.70
2018-03-26T00:35:31.120Z,955.68
2018-03-26T00:36:31.077Z,955.71
2018-03-26T00:37:31.106Z,955.70
2018-03-26T00:38:31.098Z,955.70
2018-03-26T00:39:31.121Z,955.69
2018-03-26T00:40:31.151Z,955.70
2018-03-26T00:41:31.151Z,955.69
2018-03-26T00:42:31.163Z,955.74
2018-03-26T00:43:31.157Z,955.74
2018-03-26T00:44:31.179Z,955.74
2018-03-26T00:45:31.207Z,955.78
2018-03-26T00:46:31.205Z,955.79
2018-03-26T00:47:31.217Z,955.75
2018-03-26T00:48:31.245Z,955.77
2018-03-26T00:49:31.224Z,955.80
2018-03-26T00:50:31.242Z,955.77
2018-03-26T00:51:31.247Z,955.79
2018-03-26T00:52:31.271Z,955.82
2018-03-26T00:53:31.285Z,955.82
2018-03-26T00:54:31.285Z,955.86
2018-03-26T00:55:31.287Z,955.83
2018-03-26T00:56:31.302Z,955.84
2018-03-26T00:57:31.330Z,955.81
2018-03-26T00:58:31.322Z,955.82
2018-03-26T00:59:31.332Z,955.81
2018-03-26T01:00:31.353Z,955.80
2018-03-26T01:01:31.395Z,955.84
2018-03-26T01:02:31.368Z,955.84
2018-03-26T01:03:31.389Z,955.88
2018-03-26T01:04:31.389Z,955.85
2018-03-26T01:05:31.404Z,955.88
2018-03-26T01:06:31.432Z,955.88
2018-03-26T01:07:31.432Z,955.86
2018-03-26T01:08:31.434Z,955.90
2018-03-26T01:09:31.450Z,955.84
2018-03-26T01:10:31.456Z,955.89
2018-03-26T01:11:31.476Z,955.86
2018-03-26T01:12:31.502Z,955.91
2018-03-26T01:13:31.502Z,955.92
2018-03-26T01:14:31.518Z,955.95
2018-03-26T01:15:31.524Z,955.97
2018-03-26T01:16:31.533Z,955.93
2018-03-26T01:17:31.594Z,955.92
2018-03-26T01:18:31.549Z,955.92
2018-03-26T01:19:31.562Z,955.95
2018-03-26T01:20:31.583Z,955.94
2018-03-26T01:21:31.617Z,955.95
2018-03-26T01:22:31.612Z,955.97
2018-03-26T01:23:31.636Z,956.00
2018-03-26T01:24:31.625Z,956.03
2018-03-26T01:25:31.628Z,955.99
2018-03-26T01:26:31.660Z,955.99
2018-03-26T01:27:31.667Z,956.02
2018-03-26T01:28:31.677Z,956.00
2018-03-26T01:29:31.678Z,956.04
2018-03-26T01:30:31.694Z,956.01
2018-03-26T01:31:31.724Z,956.00
2018-03-26T01:32:31.717Z,956.01
2018-03-26T01:33:31.745Z,956.04
2018-03-26T01:34:31.732Z,956.02
2018-03-26T01:35:31.743Z,956.03
2018-03-26T01:36:31.754Z,956.02
2018-03-26T01:37:31.766Z,956.02
2018-03-26T01:38:31.811Z,956.00
2018-03-26T01:39:31.841Z,956.02
2018-03-26T01:40:31.816Z,955.99
2018-03-26T01:41:31.810Z,956.01
2018-03-26T01:42:31.844Z,955.99
2018-03-26T01:43:31.839Z,956.03
2018-03-26T01:44:31.850Z,956.05
2018-03-26T01:45:31.896Z,956.02
2018-03-26T01:46:31.925Z,955.98
2018-03-26T01:47:31.900Z,956.02
2018-03-26T01:48:31.900Z,956.02
2018-03-26T01:49:31.918Z,956.01
2018-03-26T01:50:31.924Z,955.99
2018-03-26T01:51:31.930Z,956.02
2018-03-26T01:52:31.954Z,956.03
2018-03-26T01:53:31.947Z,956.01
2018-03-26T01:54:31.962Z,956.03
2018-03-26T01:55:31.979Z,956.04
2018-03-26T01:56:31.996Z,956.04
2018-03-26T01:57:31.996Z,956.04
2018-03-26T01:58:32.010Z,956.04
2018-03-26T01:59:32.049Z,956.05
2018-03-26T02:00:32.031Z,956.07
2018-03-26T02:01:32.040Z,956.02
2018-03-26T02:02:32.053Z,956.04
2018-03-26T02:03:32.064Z,956.05
2018-03-26T02:04:32.100Z,956.06
2018-03-26T02:05:32.086Z,956.04
2018-03-26T02:06:32.103Z,956.07
2018-03-26T02:07:32.109Z,956.03
2018-03-26T02:08:32.127Z,956.05
2018-03-26T02:09:32.166Z,956.03
2018-03-26T02:10:32.142Z,956.04
2018-03-26T02:11:32.158Z,956.02
2018-03-26T02:12:32.169Z,956.02
2018-03-26T02:13:32.184Z,956.03
2018-03-26T02:14:32.209Z,956.04
2018-03-26T02:15:32.207Z,956.04
2018-03-26T02:16:32.220Z,956.06
2018-03-26T02:17:32.230Z,956.06
2018-03-26T02:18:32.271Z,956.04
2018-03-26T02:19:32.250Z,956.05
2018-03-26T02:20:32.263Z,956.02
2018-03-26T02:21:32.267Z,956.03
2018-03-26T02:22:32.285Z,956.02
2018-03-26T02:23:32.293Z,956.02
2018-03-26T02:24:32.343Z,956.01
2018-03-26T02:25:32.316Z,956.01
2018-03-26T02:26:32.339Z,956.02
2018-03-26T02:27:32.344Z,956.01
2018-03-26T02:28:32.362Z,956.03
2018-03-26T02:29:32.394Z,956.04
2018-03-26T02:30:32.378Z,955.98
2018-03-26T02:31:32.405Z,956.00
2018-03-26T02:32:32.452Z,955.98
2018-03-26T02:33:32.411Z,955.97
2018-03-26T02:34:32.421Z,955.98
2018-03-26T02:35:32.434Z,955.94
2018-03-26T02:36:32.443Z,955.98
2018-03-26T02:37:32.478Z,956.00
2018-03-26T02:38:32.488Z,955.99
2018-03-26T02:39:32.486Z,955.98
2018-03-26T02:40:32.534Z,956.02
2018-03-26T02:41:32.496Z,956.01
2018-03-26T02:42:32.517Z,956.02
2018-03-26T02:43:32.528Z,956.02
2018-03-26T02:44:32.540Z,956.04
2018-03-26T02:45:32.555Z,956.03
2018-03-26T02:46:32.589Z,956.03
2018-03-26T02:47:32.571Z,956.05
2018-03-26T02:48:32.582Z,956.05
2018-03-26T02:49:32.597Z,956.06
2018-03-26T02:50:32.604Z,956.10
2018-03-26T02:51:32.638Z,956.13
2018-03-26T02:52:32.643Z,956.12
2018-03-26T02:53:32.644Z,956.10
2018-03-26T02:54:32.649Z,956.14
2018-03-26T02:55:32.667Z,956.18
2018-03-26T02:56:32.678Z,956.19
2018-03-26T02:57:32.704Z,956.20
2018-03-26T02:58:32.701Z,956.23
2018-03-26T02:59:32.710Z,956.27
2018-03-26T03:00:32.717Z,956.27
2018-03-26T03:01:32.732Z,956.25
2018-03-26T03:02:32.776Z,956.25
2018-03-26T03:03:32.765Z,956.29
2018-03-26T03:04:32.782Z,956.31
2018-03-26T03:05:32.781Z,956.36
2018-03-26T03:06:32.791Z,956.33
2018-03-26T03:07:32.830Z,956.31
2018-03-26T03:08:32.812Z,956.36
2018-03-26T03:09:32.827Z,956.32
2018-03-26T03:10:32.844Z,956.33
2018-03-26T03:11:32.851Z,956.36
2018-03-26T03:12:32.895Z,956.37
2018-03-26T03:13:32.872Z,956.37
2018-03-26T03:14:32.880Z,956.33
2018-03-26T03:15:32.899Z,956.34
2018-03-26T03:16:32.909Z,956.36
2018-03-26T03:17:32.937Z,956.34
2018-03-26T03:18:32.923Z,956.30
2018-03-26T03:19:32.942Z,956.28
2018-03-26T03:20:32.951Z,956.29
2018-03-26T03:21:32.961Z,956.26
2018-03-26T03:22:33.027Z,956.29
2018-03-26T03:23:32.985Z,956.32
2018-03-26T03:24:32.993Z,956.33
2018-03-26T03:25:33.009Z,956.33
2018-03-26T03:26:33.016Z,956.36
2018-03-26T03:27:33.049Z,956.33
2018-03-26T03:28:33.044Z,956.34
2018-03-26T03:29:33.071Z,956.42
2018-03-26T03:30:33.071Z,956.37
2018-03-26T03:31:33.079Z,956.40
2018-03-26T03:32:33.110Z,956.38
2018-03-26T03:33:33.095Z,956.39
2018-03-26T03:34:33.110Z,956.37
2018-03-26T03:35:33.124Z,956.44
2018-03-26T03:36:33.165Z,956.42
2018-03-26T03:37:33.159Z,956.43
2018-03-26T03:38:33.154Z,956.41
2018-03-26T03:39:33.186Z,956.41
2018-03-26T03:40:33.190Z,956.40
2018-03-26T03:41:33.219Z,956.38
2018-03-26T03:42:33.206Z,956.39
2018-03-26T03:43:33.217Z,956.38
2018-03-26T03:44:33.269Z,956.42
2018-03-26T03:45:33.248Z,956.46
2018-03-26T03:46:33.252Z,956.47
2018-03-26T03:47:33.282Z,956.52
2018-03-26T03:48:33.282Z,956.51
2018-03-26T03:49:33.309Z,956.55
2018-03-26T03:50:33.300Z,956.56
2018-03-26T03:51:33.302Z,956.58
2018-03-26T03:52:33.315Z,956.60
2018-03-26T03:53:33.378Z,956.59
2018-03-26T03:54:33.364Z,956.62
2018-03-26T03:55:33.353Z,956.62
2018-03-26T03:56:33.375Z,956.62
2018-03-26T03:57:33.415Z,956.65
2018-03-26T03:58:33.422Z,956.61
2018-03-26T03:59:33.416Z,956.61
2018-03-26T04:00:33.426Z,956.66
2018-03-26T04:01:33.464Z,956.62
2018-03-26T04:02:33.466Z,956.62
2018-03-26T04:03:33.490Z,956.61
2018-03-26T04:04:33.495Z,956.56
2018-03-26T04:05:33.497Z,956.56
2018-03-26T04:06:33.504Z,956.56
2018-03-26T04:07:33.513Z,956.54
2018-03-26T04:08:33.538Z,956.56
2018-03-26T04:09:33.513Z,956.54
2018-03-26T04:10:33.564Z,956.55
2018-03-26T04:11:33.567Z,956.52
2018-03-26T04:12:33.562Z,956.48
2018-03-26T04:13:33.565Z,956.53
2018-03-26T04:14:33.568Z,956.53
2018-03-26T04:15:33.586Z,956.54
2018-03-26T04:16:33.604Z,956.54
2018-03-26T04:17:33.599Z,956.54
2018-03-26T04:18:33.616Z,956.58
2018-03-26T04:19:33.623Z,956.53
2018-03-26T04:20:33.634Z,956.57
2018-03-26T04:21:33.672Z,956.58
2018-03-26T04:22:33.688Z,956.56
2018-03-26T04:23:33.673Z,956.58
2018-03-26T04:24:33.696Z,956.58
2018-03-26T04:25:33.702Z,956.62
2018-03-26T04:26:33.698Z,956.61
2018-03-26T04:27:33.747Z,956.63
2018-03-26T04:28:33.753Z,956.61
2018-03-26T04:29:33.741Z,956.61
2018-03-26T04:30:33.785Z,956.60
2018-03-26T04:31:33.759Z,956.62
2018-03-26T04:32:33.794Z,956.63
2018-03-26T04:33:33.779Z,956.65
2018-03-26T04:34:33.795Z,956.65
2018-03-26T04:35:33.834Z,956.65
2018-03-26T04:36:33.816Z,956.65
2018-03-26T04:37:33.829Z,956.65
2018-03-26T04:38:33.836Z,956.60
2018-03-26T04:39:33.848Z,956.61
2018-03-26T04:40:33.894Z,956.62
2018-03-26T04:41:33.867Z,956.62
2018-03-26T04:42:33.884Z,956.63
2018-03-26T04:43:33.896Z,956.65
2018-03-26T04:44:33.908Z,956.60
2018-03-26T04:45:33.967Z,956.59
2018-03-26T04:46:33.927Z,956.59
2018-03-26T04:47:33.955Z,956.59
2018-03-26T04:48:33.948Z,956.59
2018-03-26T04:49:33.971Z,956.61
2018-03-26T04:50:33.989Z,956.58
2018-03-26T04:51:34.023Z,956.62
2018-03-26T04:52:33.999Z,956.58
2018-03-26T04:53:34.042Z,956.59
2018-03-26T04:54:34.020Z,956.60
2018-03-26T04:55:34.096Z,956.62
2018-03-26T04:56:34.043Z,956.60
2018-03-26T04:57:34.050Z,956.62
2018-03-26T04:58:34.071Z,956.62
2018-03-26T04:59:34.104Z,956.58
2018-03-26T05:00:34.087Z,956.63
2018-03-26T05:01:34.100Z,956.63
2018-03-26T05:02:34.112Z,956.63
2018-03-26T05:03:34.136Z,956.63
2018-03-26T05:04:34.127Z,956.63
2018-03-26T05:05:34.161Z,956.58
2018-03-26T05:06:34.159Z,956.62
2018-03-26T05:07:34.171Z,956.67
2018-03-26T05:08:34.222Z,956.67
2018-03-26T05:09:34.187Z,956.65
2018-03-26T05:10:34.206Z,956.67
2018-03-26T05:11:34.211Z,956.66
2018-03-26T05:12:34.228Z,956.68
2018-03-26T05:13:34.237Z,956.69
2018-03-26T05:14:34.260Z,956.68
2018-03-26T05:15:34.287Z,956.68
2018-03-26T05:16:34.268Z,956.68
2018-03-26T05:17:34.280Z,956.66
2018-03-26T05:18:34.285Z,956.67
2018-03-26T05:19:34.306Z,956.65
2018-03-26T05:20:34.332Z,956.66
2018-03-26T05:21:34.322Z,956.67
2018-03-26T05:22:34.337Z,956.67
2018-03-26T05:23:34.346Z,956.66
2018-03-26T05:24:34.361Z,956.63
2018-03-26T05:25:34.409Z,956.67
2018-03-26T05:26:34.381Z,956.69
2018-03-26T05:27:34.394Z,956.71
2018-03-26T05:28:34.404Z,956.67
2018-03-26T05:29:34.418Z,956.73
2018-03-26T05:30:34.458Z,956.72
2018-03-26T05:31:34.436Z,956.70
2018-03-26T05:32:34.450Z,956.72
2018-03-26T05:33:34.459Z,956.75
2018-03-26T05:34:34.473Z,956.76
2018-03-26T05:35:34.500Z,956.72
2018-03-26T05:36:34.653Z,956.76
2018-03-26T05:37:34.511Z,956.77
2018-03-26T05:38:34.521Z,956.78
2018-03-26T05:39:34.528Z,956.77
2018-03-26T05:40:34.542Z,956.81
2018-03-26T05:41:34.549Z,956.77
2018-03-26T05:42:34.588Z,956.78
2018-03-26T05:43:34.572Z,956.79
2018-03-26T05:44:34.588Z,956.80
2018-03-26T05:45:34.598Z,956.79
2018-03-26T05:46:34.609Z,956.78
2018-03-26T05:47:34.667Z,956.79
2018-03-26T05:48:34.626Z,956.80
2018-03-26T05:49:34.647Z,956.86
2018-03-26T05:50:34.653Z,956.84
2018-03-26T05:51:34.665Z,956.88
2018-03-26T05:52:34.710Z,956.89
2018-03-26T05:53:34.686Z,956.85
2018-03-26T05:54:34.698Z,956.88
2018-03-26T05:55:34.709Z,956.89
2018-03-26T05:56:34.717Z,956.86
2018-03-26T05:57:34.745Z,956.91
2018-03-26T05:58:34.743Z,956.91
2018-03-26T05:59:34.777Z,956.90
2018-03-26T06:00:34.762Z,956.91
2018-03-26T06:01:34.795Z,956.90
2018-03-26T06:02:34.789Z,956.93
2018-03-26T06:03:34.855Z,956.91
2018-03-26T06:04:34.814Z,956.90
2018-03-26T06:05:34.823Z,956.87
2018-03-26T06:06:34.836Z,956.90
2018-03-26T06:07:34.850Z,956.90
2018-03-26T06:08:34.906Z,956.95
2018-03-26T06:09:34.906Z,956.91
2018-03-26T06:10:34.887Z,956.93
2018-03-26T06:11:34.894Z,956.95
2018-03-26T06:12:34.900Z,957.00
2018-03-26T06:13:34.916Z,956.98
2018-03-26T06:14:34.956Z,956.99
2018-03-26T06:15:34.997Z,957.00
2018-03-26T06:16:34.990Z,956.99
2018-03-26T06:17:34.993Z,957.00
2018-03-26T06:18:34.980Z,957.01
2018-03-26T06:19:35.067Z,957.04
2018-03-26T06:20:35.002Z,957.06
2018-03-26T06:21:35.009Z,957.11
2018-03-26T06:22:35.024Z,957.12
2018-03-26T06:23:35.037Z,957.14
2018-03-26T06:24:35.082Z,957.11
2018-03-26T06:25:35.053Z,957.16
2018-03-26T06:26:35.064Z,957.14
2018-03-26T06:27:35.074Z,957.18
2018-03-26T06:28:35.088Z,957.20
2018-03-26T06:29:35.139Z,957.24
2018-03-26T06:30:35.196Z,957.25
2018-03-26T06:31:35.127Z,957.29
2018-03-26T06:32:35.134Z,957.29
2018-03-26T06:33:35.147Z,957.30
2018-03-26T06:34:35.173Z,957.29
2018-03-26T06:35:35.170Z,957.32
2018-03-26T06:36:35.193Z,957.30
2018-03-26T06:37:35.192Z,957.30
2018-03-26T06:38:35.206Z,957.33
2018-03-26T06:39:35.255Z,957.32
2018-03-26T06:40:35.242Z,957.36
2018-03-26T06:41:35.247Z,957.42
2018-03-26T06:42:35.272Z,957.41
2018-03-26T06:43:35.317Z,957.40
2018-03-26T06:44:35.338Z,957.41
2018-03-26T06:45:35.294Z,957.42
2018-03-26T06:46:35.342Z,957.44
2018-03-26T06:47:35.310Z,957.44
2018-03-26T06:48:35.324Z,957.49
2018-03-26T06:49:35.331Z,957.52
2018-03-26T06:50:35.345Z,957.51
2018-03-26T06:51:35.360Z,957.52
2018-03-26T06:52:35.401Z,957.49
2018-03-26T06:53:35.380Z,957.54
2018-03-26T06:54:35.399Z,957.56
2018-03-26T06:55:35.413Z,957.57
2018-03-26T06:56:35.411Z,957.60
2018-03-26T06:57:35.445Z,957.60
2018-03-26T06:58:35.438Z,957.61
2018-03-26T06:59:35.484Z,957.57
2018-03-26T07:00:35.456Z,957.58
2018-03-26T07:01:35.473Z,957.60
2018-03-26T07:02:35.487Z,957.58
2018-03-26T07:03:35.500Z,957.59
2018-03-26T07:04:35.546Z,957.61
2018-03-26T07:05:35.520Z,957.65
2018-03-26T07:06:35.532Z,957.65
2018-03-26T07:07:35.561Z,957.65
2018-03-26T07:08:35.571Z,957.65
2018-03-26T07:09:35.566Z,957.65
2018-03-26T07:10:35.575Z,957.62
2018-03-26T07:11:35.589Z,957.66
2018-03-26T07:12:35.605Z,957.70
2018-03-26T07:13:35.625Z,957.66
2018-03-26T07:14:35.624Z,957.66
2018-03-26T07:15:35.635Z,957.68
2018-03-26T07:16:35.671Z,957.67
2018-03-26T07:17:35.664Z,957.72
2018-03-26T07:18:35.664Z,957.71
2018-03-26T07:19:35.698Z,957.68
2018-03-26T07:20:35.694Z,957.69
2018-03-26T07:21:35.747Z,957.75
2018-03-26T07:22:35.723Z,957.75
2018-03-26T07:23:35.765Z,957.77
2018-03-26T07:24:35.743Z,957.78
2018-03-26T07:25:35.751Z,957.79
2018-03-26T07:26:35.767Z,957.80
2018-03-26T07:27:35.775Z,957.78
2018-03-26T07:28:35.804Z,957.78
2018-03-26T07:29:35.796Z,957.80
2018-03-26T07:30:35.824Z,957.81
2018-03-26T07:31:35.816Z,957.79
2018-03-26T07:32:35.825Z,957.85
2018-03-26T07:33:35.842Z,957.86
2018-03-26T07:34:35.856Z,957.87
2018-03-26T07:35:35.887Z,957.88
2018-03-26T07:36:35.874Z,957.85
2018-03-26T07:37:35.888Z,957.86
2018-03-26T07:38:35.899Z,957.87
2018-03-26T07:39:35.911Z,957.86
2018-03-26T07:40:35.955Z,957.86
2018-03-26T07:41:35.934Z,957.89
2018-03-26T07:42:35.944Z,957.90
2018-03-26T07:43:35.961Z,957.88
2018-03-26T07:44:35.971Z,957.86
2018-03-26T07:45:36.001Z,957.90
2018-03-26T07:46:36.040Z,957.89
2018-03-26T07:47:36.005Z,957.89
2018-03-26T07:48:36.033Z,957.85
2018-03-26T07:49:36.032Z,957.93
2018-03-26T07:50:36.041Z,957.95
2018-03-26T07:51:36.054Z,957.97
2018-03-26T07:52:36.063Z,957.97
2018-03-26T07:53:36.100Z,958.00
2018-03-26T07:54:36.093Z,958.00
2018-03-26T07:55:36.103Z,957.98
2018-03-26T07:56:36.115Z,958.01
2018-03-26T07:57:36.149Z,958.04
2018-03-26T07:58:36.138Z,958.02
2018-03-26T07:59:36.148Z,958.08
2018-03-26T08:00:36.199Z,958.06
2018-03-26T08:01:36.178Z,958.04
2018-03-26T08:02:36.209Z,958.08
2018-03-26T08:03:36.202Z,958.06
2018-03-26T08:04:36.206Z,958.07
2018-03-26T08:05:36.224Z,958.11
2018-03-26T08:06:36.228Z,958.09
2018-03-26T08:07:36.276Z,958.11
2018-03-26T08:08:36.256Z,958.15
2018-03-26T08:09:36.266Z,958.18
2018-03-26T08:10:36.285Z,958.20
2018-03-26T08:11:36.290Z,958.19
2018-03-26T08:12:36.331Z,958.24
2018-03-26T08:13:36.347Z,958.21
2018-03-26T08:14:36.330Z,958.26
2018-03-26T08:15:36.352Z,958.24
2018-03-26T08:16:36.351Z,958.25
2018-03-26T08:17:36.362Z,958.30
2018-03-26T08:18:36.393Z,958.32
2018-03-26T08:19:36.387Z,958.31
2018-03-26T08:20:36.396Z,958.31
2018-03-26T08:21:36.425Z,958.37
2018-03-26T08:22:36.438Z,958.34
2018-03-26T08:23:36.437Z,958.33
2018-03-26T08:24:36.442Z,958.38
2018-03-26T08:25:36.454Z,958.33
2018-03-26T08:26:36.470Z,958.33
2018-03-26T08:27:36.503Z,958.35
2018-03-26T08:28:36.499Z,958.34
2018-03-26T08:29:36.594Z,958.34
2018-03-26T08:30:36.570Z,958.35
2018-03-26T08:31:36.595Z,958.40
2018-03-26T08:32:36.544Z,958.44
2018-03-26T08:33:36.554Z,958.47
2018-03-26T08:34:36.572Z,958.49
2018-03-26T08:35:36.595Z,958.55
2018-03-26T08:36:36.602Z,958.52
2018-03-26T08:37:36.605Z,958.53
2018-03-26T08:38:36.617Z,958.54
2018-03-26T08:39:36.622Z,958.52
2018-03-26T08:40:36.708Z,958.54
2018-03-26T08:41:36.644Z,958.56
2018-03-26T08:42:36.664Z,958.58
2018-03-26T08:43:36.668Z,958.61
2018-03-26T08:44:36.710Z,958.61
2018-03-26T08:45:36.696Z,958.61
2018-03-26T08:46:36.707Z,958.63
2018-03-26T08:47:36.739Z,958.63
2018-03-26T08:48:36.734Z,958.67
2018-03-26T08:49:36.740Z,958.71
2018-03-26T08:50:36.772Z,958.66
2018-03-26T08:51:36.767Z,958.68
2018-03-26T08:52:36.812Z,958.70
2018-03-26T08:53:36.840Z,958.69
2018-03-26T08:54:36.800Z,958.68
2018-03-26T08:55:36.816Z,958.69
2018-03-26T08:56:36.830Z,958.71
2018-03-26T08:57:36.882Z,958.72
2018-03-26T08:58:36.852Z,958.72
2018-03-26T08:59:36.864Z,958.74
2018-03-26T09:00:36.877Z,958.76
2018-03-26T09:01:36.882Z,958.75
2018-03-26T09:02:36.920Z,958.76
2018-03-26T09:03:36.912Z,958.75
2018-03-26T09:04:36.937Z,958.72
2018-03-26T09:05:36.936Z,958.72
2018-03-26T09:06:36.949Z,958.72
2018-03-26T09:07:36.992Z,958.75
2018-03-26T09:08:36.967Z,958.73
2018-03-26T09:09:36.984Z,958.72
2018-03-26T09:10:37.002Z,958.78
2018-03-26T09:11:37.018Z,958.78
2018-03-26T09:12:37.055Z,958.75
2018-03-26T09:13:37.067Z,958.75
2018-03-26T09:14:37.045Z,958.69
2018-03-26T09:15:37.055Z,958.75
2018-03-26T09:16:37.073Z,958.75
2018-03-26T09:17:37.099Z,958.69
2018-03-26T09:18:37.096Z,958.73
2018-03-26T09:19:37.133Z,958.71
2018-03-26T09:20:37.115Z,958.71
2018-03-26T09:21:37.152Z,958.72
2018-03-26T09:22:37.143Z,958.70
2018-03-26T09:23:37.156Z,958.68
2018-03-26T09:24:37.194Z,958.69
2018-03-26T09:25:37.214Z,958.75
2018-03-26T09:26:37.192Z,958.73
2018-03-26T09:27:37.212Z,958.70
2018-03-26T09:28:37.221Z,958.73
2018-03-26T09:29:37.233Z,958.76
2018-03-26T09:30:37.828Z,958.75
2018-03-26T09:31:37.258Z,958.77
2018-03-26T09:32:37.318Z,958.80
2018-03-26T09:33:37.367Z,958.83
2018-03-26T09:34:37.295Z,958.85
2018-03-26T09:35:42.203Z,958.84
2018-03-26T09:36:37.340Z,958.83
2018-03-26T09:37:37.333Z,958.81
2018-03-26T09:38:37.391Z,958.80
2018-03-26T09:39:37.478Z,958.83
2018-03-26T09:40:37.372Z,958.82
2018-03-26T09:41:37.382Z,958.86
2018-03-26T09:42:37.581Z,958.86
2018-03-26T09:43:37.503Z,958.85
2018-03-26T09:44:37.450Z,958.88
2018-03-26T09:45:37.436Z,958.82
2018-03-26T09:46:37.450Z,958.86
2018-03-26T09:47:37.479Z,958.86
2018-03-26T09:48:37.498Z,958.84
2018-03-26T09:49:37.487Z,958.86
2018-03-26T09:50:40.460Z,958.91
2018-03-26T09:51:37.515Z,958.87
2018-03-26T09:52:37.520Z,958.91
2018-03-26T09:53:37.578Z,958.85
2018-03-26T09:54:37.551Z,958.89
2018-03-26T09:55:37.558Z,958.89
2018-03-26T09:56:37.575Z,958.92
2018-03-26T09:57:37.602Z,958.94
2018-03-26T09:58:37.655Z,958.92
2018-03-26T09:59:37.615Z,958.97
2018-03-26T10:00:37.623Z,958.99
2018-03-26T10:01:37.634Z,958.96
2018-03-26T10:02:37.651Z,958.94
2018-03-26T10:03:40.340Z,959.00
2018-03-26T10:04:37.726Z,959.00
2018-03-26T10:05:41.782Z,959.00
2018-03-26T10:06:37.731Z,959.05
2018-03-26T10:07:37.732Z,959.10
2018-03-26T10:08:37.808Z,959.08
2018-03-26T10:09:39.279Z,959.09
2018-03-26T10:10:38.341Z,959.14
2018-03-26T10:11:38.361Z,959.10
2018-03-26T10:12:37.777Z,959.13
2018-03-26T10:13:37.846Z,959.13
2018-03-26T10:14:38.769Z,959.08
2018-03-26T10:15:37.820Z,959.10
2018-03-26T10:16:37.829Z,959.12
2018-03-26T10:17:37.854Z,959.09
2018-03-26T10:18:37.869Z,959.07
2018-03-26T10:19:37.871Z,959.07
2018-03-26T10:20:37.911Z,959.07
2018-03-26T10:21:37.891Z,959.03
2018-03-26T10:22:37.906Z,959.10
2018-03-26T10:23:37.920Z,959.10
2018-03-26T10:24:37.932Z,959.08
2018-03-26T10:25:37.964Z,959.11
2018-03-26T10:26:37.951Z,959.08
2018-03-26T10:27:37.971Z,959.08
2018-03-26T10:28:38.011Z,959.10
2018-03-26T10:29:38.009Z,959.07
2018-03-26T10:30:38.082Z,959.08
2018-03-26T10:31:38.083Z,959.14
2018-03-26T10:32:38.086Z,959.10
2018-03-26T10:33:38.042Z,959.09
2018-03-26T10:34:38.111Z,959.10
2018-03-26T10:35:38.147Z,959.10
2018-03-26T10:36:38.082Z,959.10
2018-03-26T10:37:38.098Z,959.11
2018-03-26T10:38:38.170Z,959.15
2018-03-26T10:39:38.139Z,959.13
2018-03-26T10:40:38.180Z,959.09
2018-03-26T10:41:38.229Z,959.09
2018-03-26T10:42:38.161Z,959.07
2018-03-26T10:43:38.174Z,959.10
2018-03-26T10:44:38.191Z,959.08
2018-03-26T10:45:38.968Z,959.12
2018-03-26T10:46:41.814Z,959.13
2018-03-26T10:47:39.071Z,959.14
2018-03-26T10:48:38.359Z,959.11
2018-03-26T10:49:38.405Z,959.11
2018-03-26T10:50:38.415Z,959.12
2018-03-26T10:51:38.413Z,959.08
2018-03-26T10:52:38.312Z,959.10
2018-03-26T10:53:38.894Z,959.10
2018-03-26T10:54:38.922Z,959.08
2018-03-26T10:55:39.330Z,959.08
2018-03-26T10:56:38.446Z,959.11
2018-03-26T10:57:38.601Z,959.14
2018-03-26T10:58:38.433Z,959.15
2018-03-26T10:59:38.403Z,959.16
2018-03-26T11:00:38.397Z,959.14
2018-03-26T11:01:38.437Z,959.17
2018-03-26T11:02:38.463Z,959.13
2018-03-26T11:03:38.448Z,959.13
2018-03-26T11:04:38.473Z,959.16
2018-03-26T11:05:38.493Z,959.15
2018-03-26T11:06:38.522Z,959.13
2018-03-26T11:07:38.530Z,959.11
2018-03-26T11:08:38.506Z,959.14
2018-03-26T11:09:38.519Z,959.11
2018-03-26T11:10:38.528Z,959.12
2018-03-26T11:11:38.614Z,959.10
2018-03-26T11:12:38.566Z,959.17
2018-03-26T11:13:38.604Z,959.14
2018-03-26T11:14:38.663Z,959.11
2018-03-26T11:15:38.654Z,959.12
2018-03-26T11:16:38.681Z,959.10
2018-03-26T11:17:38.620Z,959.12
2018-03-26T11:18:38.632Z,959.12
2018-03-26T11:19:38.724Z,959.11
2018-03-26T11:20:38.662Z,959.15
2018-03-26T11:21:38.689Z,959.10
2018-03-26T11:22:38.768Z,959.13
2018-03-26T11:23:38.737Z,959.10
2018-03-26T11:24:38.758Z,959.12
2018-03-26T11:25:39.084Z,959.09
2018-03-26T11:26:38.742Z,959.09
2018-03-26T11:27:38.782Z,959.06
2018-03-26T11:28:38.808Z,959.04
2018-03-26T11:29:38.803Z,959.04
2018-03-26T11:30:38.826Z,959.05
2018-03-26T11:31:38.815Z,959.08
2018-03-26T11:32:38.922Z,959.02
2018-03-26T11:33:38.829Z,959.03
2018-03-26T11:34:38.865Z,959.04
2018-03-26T11:35:38.904Z,959.02
2018-03-26T11:36:38.893Z,959.01
2018-03-26T11:37:38.891Z,959.02
2018-03-26T11:38:38.942Z,959.04
2018-03-26T11:39:38.925Z,959.01
2018-03-26T11:40:38.932Z,958.99
2018-03-26T11:41:38.950Z,959.00
2018-03-26T11:42:38.966Z,958.98
2018-03-26T11:43:39.028Z,959.00
2018-03-26T11:44:38.988Z,958.98
2018-03-26T11:45:39.008Z,959.01
2018-03-26T11:46:39.013Z,959.03
2018-03-26T11:47:39.030Z,959.04
2018-03-26T11:48:39.086Z,959.05
2018-03-26T11:49:39.117Z,959.06
2018-03-26T11:50:39.090Z,959.07
2018-03-26T11:51:39.141Z,959.00
2018-03-26T11:52:39.109Z,959.06
2018-03-26T11:53:40.121Z,959.03
2018-03-26T11:54:39.133Z,959.02
2018-03-26T11:55:39.157Z,959.02
2018-03-26T11:56:39.183Z,959.08
2018-03-26T11:57:39.167Z,959.05
2018-03-26T11:58:39.193Z,959.08
2018-03-26T11:59:39.199Z,959.09
2018-03-26T12:00:39.211Z,959.09
2018-03-26T12:01:39.937Z,959.08
2018-03-26T12:02:39.295Z,959.05
2018-03-26T12:03:39.253Z,959.06
2018-03-26T12:04:39.283Z,959.05
2018-03-26T12:05:39.279Z,959.06
2018-03-26T12:06:39.324Z,959.04
2018-03-26T12:07:39.313Z,959.03
2018-03-26T12:08:39.322Z,959.05
2018-03-26T12:09:39.338Z,959.05
2018-03-26T12:10:39.342Z,959.08
2018-03-26T12:11:39.434Z,959.08
2018-03-26T12:12:39.369Z,959.08
2018-03-26T12:13:39.382Z,959.04
2018-03-26T12:14:40.036Z,959.02
2018-03-26T12:15:39.417Z,959.02
2018-03-26T12:16:39.432Z,959.05
2018-03-26T12:17:39.551Z,959.03
2018-03-26T12:18:39.451Z,959.03
2018-03-26T12:19:39.475Z,959.03
2018-03-26T12:20:39.487Z,959.06
2018-03-26T12:21:40.110Z,959.01
2018-03-26T12:22:39.593Z,959.00
2018-03-26T12:23:39.680Z,959.01
2018-03-26T12:24:39.550Z,958.99
2018-03-26T12:25:39.550Z,958.98
2018-03-26T12:26:39.567Z,958.97
2018-03-26T12:27:39.737Z,958.97
2018-03-26T12:28:39.602Z,958.96